createdAt,value
2023-04-15T00:01:51.876Z,7.80
2023-04-15T00:04:18.507Z,7.70
2023-04-15T00:06:52.944Z,7.80
2023-04-15T00:09:20.288Z,8.20
2023-04-15T00:11:47.158Z,9.00
2023-04-15T00:14:13.838Z,8.70
2023-04-15T00:16:40.334Z,8.00
2023-04-15T00:19:06.883Z,8.90
2023-04-15T00:21:33.440Z,8.90
2023-04-15T00:23:59.938Z,9.10
2023-04-15T00:26:26.408Z,12.70
2023-04-15T00:28:52.868Z,8.70
2023-04-15T00:31:19.396Z,9.20
2023-04-15T00:33:45.942Z,9.10
2023-04-15T00:36:12.465Z,8.50
2023-04-15T00:38:38.963Z,9.20
2023-04-15T00:41:05.459Z,9.30
2023-04-15T00:43:31.970Z,8.90
2023-04-15T00:45:59.502Z,8.60
2023-04-15T00:48:26.689Z,8.20
2023-04-15T00:50:53.148Z,9.80
2023-04-15T00:53:19.632Z,8.70
2023-04-15T00:55:46.083Z,8.80
2023-04-15T00:58:12.632Z,9.70
2023-04-15T01:00:39.115Z,9.40
2023-04-15T01:03:05.800Z,9.20
2023-04-15T01:05:33.179Z,9.00
2023-04-15T01:07:59.867Z,8.80
2023-04-15T01:10:26.382Z,9.20
2023-04-15T01:12:52.885Z,9.30
2023-04-15T01:15:20.380Z,10.40
2023-04-15T01:17:47.080Z,9.30
2023-04-15T01:20:13.648Z,10.80
2023-04-15T01:22:40.818Z,8.70
2023-04-15T01:25:11.652Z,9.00
2023-04-15T01:27:40.244Z,8.60
2023-04-15T01:30:08.173Z,10.40
2023-04-15T01:32:34.796Z,9.30
2023-04-15T01:35:01.326Z,9.00
2023-04-15T01:37:27.876Z,8.10
2023-04-15T01:39:54.358Z,10.80
2023-04-15T01:42:21.846Z,8.40
2023-04-15T01:44:48.321Z,10.00
2023-04-15T01:47:14.764Z,10.50
2023-04-15T01:49:41.260Z,10.70
2023-04-15T01:52:07.718Z,9.60
2023-04-15T01:54:34.229Z,9.60
2023-04-15T01:57:00.726Z,11.20
2023-04-15T01:59:27.205Z,9.20
2023-04-15T02:01:53.732Z,10.00
2023-04-15T02:04:20.214Z,8.80
2023-04-15T02:06:46.665Z,9.40
2023-04-15T02:09:13.150Z,9.10
2023-04-15T02:11:39.638Z,8.30
2023-04-15T02:14:06.082Z,9.00
2023-04-15T02:16:33.312Z,9.60
2023-04-15T02:19:00.654Z,8.80
2023-04-15T02:21:27.602Z,9.70
2023-04-15T02:23:54.250Z,9.00
2023-04-15T02:26:20.794Z,9.00
2023-04-15T02:28:47.405Z,8.00
2023-04-15T02:31:13.901Z,10.30
2023-04-15T02:33:40.434Z,7.20
2023-04-15T02:36:07.103Z,7.70
2023-04-15T02:38:33.720Z,8.10
2023-04-15T02:41:00.216Z,8.20
2023-04-15T02:43:26.718Z,8.60
2023-04-15T02:45:53.152Z,7.20
2023-04-15T02:48:19.721Z,8.20
2023-04-15T02:50:47.050Z,8.40
2023-04-15T02:53:13.847Z,7.60
2023-04-15T02:55:40.598Z,9.50
2023-04-15T02:58:07.143Z,8.70
2023-04-15T03:00:33.751Z,8.00
2023-04-15T03:03:05.407Z,8.50
2023-04-15T03:05:32.234Z,7.80
2023-04-15T03:07:58.712Z,8.10
2023-04-15T03:10:25.197Z,8.30
2023-04-15T03:12:51.693Z,7.50
2023-04-15T03:15:18.179Z,7.80
2023-04-15T03:17:44.674Z,8.40
2023-04-15T03:20:11.273Z,8.00
2023-04-15T03:22:37.815Z,8.40
2023-04-15T03:25:04.624Z,7.80
2023-04-15T03:27:31.086Z,8.10
2023-04-15T03:29:57.556Z,7.80
2023-04-15T03:32:24.454Z,8.50
2023-04-15T03:34:50.967Z,8.70
2023-04-15T03:37:17.401Z,9.50
2023-04-15T03:39:43.846Z,9.30
2023-04-15T03:42:10.280Z,9.90
2023-04-15T03:44:36.786Z,8.60
2023-04-15T03:47:03.380Z,8.00
2023-04-15T03:49:29.898Z,9.30
2023-04-15T03:51:56.358Z,9.20
2023-04-15T03:54:22.908Z,8.90
2023-04-15T03:56:49.390Z,8.70
2023-04-15T03:59:15.875Z,8.60
2023-04-15T04:01:42.374Z,8.80
2023-04-15T04:04:08.993Z,9.30
2023-04-15T04:06:35.519Z,9.00
2023-04-15T04:09:02.186Z,8.50
2023-04-15T04:11:28.933Z,7.90
2023-04-15T04:13:55.405Z,8.40
2023-04-15T04:16:22.097Z,8.90
2023-04-15T04:18:48.662Z,9.90
2023-04-15T04:21:15.242Z,8.30
2023-04-15T04:23:41.746Z,7.80
2023-04-15T04:26:08.255Z,8.30
2023-04-15T04:28:34.750Z,8.80
2023-04-15T04:31:01.268Z,9.60
2023-04-15T04:33:27.783Z,9.40
2023-04-15T04:35:54.249Z,8.20
2023-04-15T04:38:20.675Z,9.10
2023-04-15T04:40:47.432Z,8.90
2023-04-15T04:43:13.944Z,8.20
2023-04-15T04:45:40.529Z,9.60
2023-04-15T04:48:07.177Z,8.00
2023-04-15T04:50:34.453Z,9.20
2023-04-15T04:53:01.454Z,9.10
2023-04-15T04:55:28.287Z,9.00
2023-04-15T04:57:54.848Z,9.00
2023-04-15T05:00:21.409Z,8.40
2023-04-15T05:02:48.211Z,8.60
2023-04-15T05:05:15.021Z,9.90
2023-04-15T05:07:41.638Z,9.30
2023-04-15T05:10:08.679Z,8.70
2023-04-15T05:12:36.001Z,8.20
2023-04-15T05:15:02.509Z,8.30
2023-04-15T05:17:28.995Z,8.80
2023-04-15T05:19:55.517Z,9.70
2023-04-15T05:22:22.019Z,10.20
2023-04-15T05:24:48.499Z,8.80
2023-04-15T05:27:14.958Z,10.50
2023-04-15T05:29:41.442Z,9.20
2023-04-15T05:32:08.062Z,10.30
2023-04-15T05:34:34.663Z,9.60
2023-04-15T05:37:01.206Z,9.40
2023-04-15T05:39:27.854Z,9.30
2023-04-15T05:41:54.416Z,9.50
2023-04-15T05:44:20.898Z,9.40
2023-04-15T05:46:47.366Z,9.00
2023-04-15T05:49:13.847Z,10.60
2023-04-15T05:51:40.298Z,9.60
2023-04-15T05:54:07.230Z,10.20
2023-04-15T05:56:33.766Z,8.30
2023-04-15T05:59:00.382Z,10.90
2023-04-15T06:01:27.552Z,9.40
2023-04-15T06:03:54.185Z,9.50
2023-04-15T06:06:20.741Z,9.40
2023-04-15T06:08:47.229Z,9.20
2023-04-15T06:11:13.795Z,9.30
2023-04-15T06:13:40.297Z,9.70
2023-04-15T06:16:07.142Z,11.70
2023-04-15T06:18:33.667Z,11.20
2023-04-15T06:21:00.227Z,10.20
2023-04-15T06:23:27.996Z,8.20
2023-04-15T06:25:54.591Z,9.10
2023-04-15T06:28:21.092Z,9.30
2023-04-15T06:30:47.646Z,7.20
2023-04-15T06:33:14.125Z,7.60
2023-04-15T06:35:40.606Z,7.60
2023-04-15T06:38:07.058Z,7.70
2023-04-15T06:40:33.718Z,8.40
2023-04-15T06:43:00.379Z,6.40
2023-04-15T06:45:26.859Z,7.50
2023-04-15T06:47:53.458Z,6.80
2023-04-15T06:50:19.979Z,8.30
2023-04-15T06:52:46.485Z,8.50
2023-04-15T06:55:12.956Z,8.30
2023-04-15T06:57:39.394Z,7.10
2023-04-15T07:00:06.541Z,6.60
2023-04-15T07:02:33.425Z,9.10
2023-04-15T07:05:00.041Z,6.70
2023-04-15T07:07:26.507Z,7.40
2023-04-15T07:09:52.959Z,6.90
2023-04-15T07:12:20.161Z,7.50
2023-04-15T07:14:46.689Z,6.80
2023-04-15T07:17:13.455Z,6.30
2023-04-15T07:19:39.966Z,5.90
2023-04-15T07:22:06.495Z,6.70
2023-04-15T07:24:33.203Z,7.50
2023-04-15T07:27:01.105Z,6.90
2023-04-15T07:29:28.064Z,7.70
2023-04-15T07:31:54.648Z,8.80
2023-04-15T07:34:21.183Z,7.30
2023-04-15T07:36:47.904Z,6.70
2023-04-15T07:39:14.393Z,6.60
2023-04-15T07:41:40.994Z,7.20
2023-04-15T07:44:07.523Z,7.10
2023-04-15T07:46:34.201Z,7.00
2023-04-15T07:49:01.096Z,7.50
2023-04-15T07:51:27.804Z,6.60
2023-04-15T07:53:54.262Z,11.50
2023-04-15T07:56:20.773Z,12.70
2023-04-15T07:58:47.256Z,6.60
2023-04-15T08:01:13.734Z,7.40
2023-04-15T08:03:40.429Z,7.20
2023-04-15T08:06:07.024Z,5.00
2023-04-15T08:08:33.554Z,8.70
2023-04-15T08:11:00.171Z,6.00
2023-04-15T08:13:26.719Z,5.40
2023-04-15T08:16:22.195Z,5.00
2023-04-15T08:18:50.007Z,5.10
2023-04-15T08:21:17.945Z,4.40
2023-04-15T08:23:45.180Z,5.90
2023-04-15T08:26:12.198Z,4.80
2023-04-15T08:28:40.552Z,6.40
2023-04-15T08:31:07.568Z,5.60
2023-04-15T08:33:34.067Z,4.70
2023-04-15T08:36:00.604Z,5.40
2023-04-15T08:38:27.234Z,4.70
2023-04-15T08:40:53.723Z,2.90
2023-04-15T08:43:23.508Z,4.20
2023-04-15T08:45:51.030Z,3.40
2023-04-15T08:48:18.039Z,2.90
2023-04-15T08:50:46.573Z,3.90
2023-04-15T08:53:13.623Z,4.60
2023-04-15T08:55:51.823Z,4.30
2023-04-15T08:58:19.401Z,4.90
2023-04-15T09:00:45.971Z,5.00
2023-04-15T09:03:12.697Z,3.90
2023-04-15T09:05:39.240Z,5.80
2023-04-15T09:08:05.829Z,4.00
2023-04-15T09:10:34.479Z,4.50
2023-04-15T09:13:01.787Z,4.70
2023-04-15T09:15:28.479Z,4.60
2023-04-15T09:17:55.485Z,2.90
2023-04-15T09:20:22.871Z,3.30
2023-04-15T09:22:50.251Z,4.20
2023-04-15T09:25:22.709Z,4.00
2023-04-15T09:27:53.205Z,2.90
2023-04-15T09:30:19.686Z,3.10
2023-04-15T09:32:57.812Z,3.50
2023-04-15T09:35:26.486Z,3.50
2023-04-15T09:37:54.700Z,4.10
2023-04-15T09:40:39.450Z,4.90
2023-04-15T09:43:07.697Z,4.40
2023-04-15T09:45:35.491Z,3.00
2023-04-15T09:48:34.472Z,3.30
2023-04-15T09:51:01.889Z,4.20
2023-04-15T09:53:29.823Z,2.60
2023-04-15T09:56:00.472Z,3.90
2023-04-15T09:58:28.904Z,3.80
2023-04-15T10:00:57.425Z,4.30
2023-04-15T10:03:31.899Z,4.70
2023-04-15T10:06:01.399Z,4.20
2023-04-15T10:08:30.274Z,1.80
2023-04-15T10:10:57.509Z,2.70
2023-04-15T10:13:25.967Z,4.30
2023-04-15T10:15:59.259Z,2.70
2023-04-15T10:18:28.285Z,4.80
2023-04-15T10:20:55.336Z,3.20
2023-04-15T10:23:23.316Z,5.30
2023-04-15T10:25:52.399Z,6.90
2023-04-15T10:28:20.510Z,6.30
2023-04-15T10:30:47.999Z,6.20
2023-04-15T10:33:15.410Z,5.90
2023-04-15T10:35:42.895Z,5.70
2023-04-15T10:38:45.405Z,7.00
2023-04-15T10:41:12.558Z,5.20
2023-04-15T10:43:39.195Z,4.30
2023-04-15T10:46:06.648Z,3.50
2023-04-15T10:48:33.336Z,3.70
2023-04-15T10:51:03.071Z,3.20
2023-04-15T10:53:29.972Z,2.80
2023-04-15T10:55:57.910Z,2.20
2023-04-15T10:58:25.588Z,1.60
2023-04-15T11:00:53.717Z,2.20
2023-04-15T11:03:40.709Z,2.70
2023-04-15T11:06:07.783Z,2.20
2023-04-15T11:08:56.142Z,2.40
2023-04-15T11:11:23.154Z,1.10
2023-04-15T11:13:52.531Z,3.60
2023-04-15T11:16:19.009Z,3.00
2023-04-15T11:18:55.482Z,2.50
2023-04-15T11:21:25.263Z,2.30
2023-04-15T11:23:51.857Z,2.20
2023-04-15T11:26:18.370Z,2.30
2023-04-15T11:28:46.173Z,3.70
2023-04-15T11:31:14.822Z,1.90
2023-04-15T11:33:58.852Z,2.00
2023-04-15T11:36:29.934Z,2.20
2023-04-15T11:38:58.674Z,1.00
2023-04-15T11:41:25.176Z,2.60
2023-04-15T11:43:52.761Z,1.90
2023-04-15T11:46:19.671Z,2.50
2023-04-15T11:48:47.462Z,2.20
2023-04-15T11:51:14.566Z,2.60
2023-04-15T11:53:47.902Z,2.70
2023-04-15T11:56:26.296Z,1.60
2023-04-15T11:58:55.456Z,1.90
2023-04-15T12:01:31.318Z,1.30
2023-04-15T12:03:57.876Z,1.70
2023-04-15T12:06:25.735Z,2.30
2023-04-15T12:08:55.267Z,2.10
2023-04-15T12:11:27.723Z,4.80
2023-04-15T12:13:57.184Z,5.10
2023-04-15T12:16:24.997Z,4.60
2023-04-15T12:18:55.949Z,4.40
2023-04-15T12:21:24.561Z,5.40
2023-04-15T12:23:52.975Z,5.00
2023-04-15T12:26:28.016Z,5.80
2023-04-15T12:29:05.041Z,6.50
2023-04-15T12:31:31.620Z,5.70
2023-04-15T12:33:59.078Z,7.70
2023-04-15T12:36:25.565Z,6.90
2023-04-15T12:38:52.023Z,7.90
2023-04-15T12:41:18.685Z,15.10
2023-04-15T12:43:45.446Z,11.00
2023-04-15T12:46:12.060Z,7.30
2023-04-15T12:48:38.646Z,7.20
2023-04-15T12:51:05.802Z,6.10
2023-04-15T12:53:32.450Z,5.60
2023-04-15T12:55:58.928Z,5.60
2023-04-15T12:58:25.432Z,6.00
2023-04-15T13:00:51.899Z,6.10
2023-04-15T13:03:18.491Z,6.90
2023-04-15T13:05:45.022Z,6.00
2023-04-15T13:08:11.495Z,5.70
2023-04-15T13:10:38.008Z,6.30
2023-04-15T13:13:05.797Z,7.20
2023-04-15T13:15:32.309Z,5.50
2023-04-15T13:17:58.838Z,7.00
2023-04-15T13:20:25.483Z,6.30
2023-04-15T13:22:52.963Z,6.20
2023-04-15T13:25:19.831Z,6.60
2023-04-15T13:27:46.359Z,7.00
2023-04-15T13:30:12.922Z,5.30
2023-04-15T13:32:39.432Z,8.10
2023-04-15T13:35:06.098Z,8.30
2023-04-15T13:37:32.612Z,6.00
2023-04-15T13:39:59.088Z,5.90
2023-04-15T13:42:25.656Z,5.80
2023-04-15T13:44:52.210Z,5.70
2023-04-15T13:47:21.945Z,5.90
2023-04-15T13:49:48.538Z,5.90
2023-04-15T13:52:15.015Z,6.30
2023-04-15T13:54:41.518Z,6.70
2023-04-15T13:57:08.234Z,7.60
2023-04-15T13:59:34.790Z,8.10
2023-04-15T14:02:02.063Z,9.10
2023-04-15T14:04:28.702Z,7.90
2023-04-15T14:06:56.292Z,8.90
2023-04-15T14:09:25.012Z,9.80
2023-04-15T14:11:53.065Z,7.70
2023-04-15T14:14:19.598Z,7.10
2023-04-15T14:16:46.150Z,7.10
2023-04-15T14:19:12.659Z,7.00
2023-04-15T14:21:39.136Z,7.40
2023-04-15T14:24:06.022Z,6.30
2023-04-15T14:26:32.641Z,10.90
2023-04-15T14:28:59.103Z,11.70
2023-04-15T14:31:25.627Z,7.10
2023-04-15T14:33:52.131Z,7.20
2023-04-15T14:36:18.709Z,5.70
2023-04-15T14:38:46.468Z,7.00
2023-04-15T14:41:14.108Z,5.50
2023-04-15T14:43:40.574Z,6.70
2023-04-15T14:46:07.720Z,5.40
2023-04-15T14:48:34.265Z,4.90
2023-04-15T14:51:00.860Z,5.70
2023-04-15T14:53:27.342Z,3.40
2023-04-15T14:55:53.833Z,4.20
2023-04-15T14:58:20.309Z,2.70
2023-04-15T15:00:47.035Z,5.70
2023-04-15T15:03:13.820Z,5.20
2023-04-15T15:05:41.975Z,5.00
2023-04-15T15:08:09.495Z,4.10
2023-04-15T15:10:47.985Z,2.90
2023-04-15T15:13:17.471Z,3.60
2023-04-15T15:15:44.084Z,2.80
2023-04-15T15:18:11.195Z,1.60
2023-04-15T15:20:37.777Z,1.80
2023-04-15T15:23:04.290Z,4.00
2023-04-15T15:25:30.780Z,1.60
2023-04-15T15:27:57.611Z,2.40
2023-04-15T15:30:24.237Z,2.60
2023-04-15T15:32:51.365Z,1.80
2023-04-15T15:35:18.021Z,2.10
2023-04-15T15:37:45.708Z,1.60
2023-04-15T15:40:12.613Z,2.70
2023-04-15T15:42:39.119Z,2.00
2023-04-15T15:45:06.088Z,4.20
2023-04-15T15:47:32.793Z,4.00
2023-04-15T15:50:01.026Z,2.50
2023-04-15T15:52:27.810Z,2.10
2023-04-15T15:54:54.300Z,4.80
2023-04-15T15:57:20.763Z,4.20
2023-04-15T15:59:47.292Z,3.10
2023-04-15T16:02:13.995Z,3.50
2023-04-15T16:04:40.865Z,3.20
2023-04-15T16:07:07.452Z,5.00
2023-04-15T16:09:33.964Z,4.80
2023-04-15T16:12:00.567Z,6.90
2023-04-15T16:14:27.085Z,6.50
2023-04-15T16:16:53.630Z,6.50
2023-04-15T16:19:21.135Z,8.20
2023-04-15T16:21:48.252Z,6.90
2023-04-15T16:24:14.848Z,6.40
2023-04-15T16:26:41.787Z,13.20
2023-04-15T16:29:08.516Z,8.70
2023-04-15T16:31:35.307Z,7.80
2023-04-15T16:34:02.708Z,8.50
2023-04-15T16:36:29.183Z,8.60
2023-04-15T16:38:55.661Z,6.80
2023-04-15T16:41:22.174Z,5.40
2023-04-15T16:43:48.714Z,11.30
2023-04-15T16:46:15.210Z,9.30
2023-04-15T16:48:41.754Z,7.60
2023-04-15T16:51:08.296Z,7.70
2023-04-15T16:53:34.754Z,5.50
2023-04-15T16:56:01.244Z,8.90
2023-04-15T16:58:27.815Z,7.20
2023-04-15T17:00:54.321Z,7.90
2023-04-15T17:03:20.947Z,8.90
2023-04-15T17:05:47.561Z,6.10
2023-04-15T17:08:14.031Z,6.60
2023-04-15T17:10:40.550Z,7.50
2023-04-15T17:13:07.372Z,6.30
2023-04-15T17:15:33.896Z,7.20
2023-04-15T17:18:00.514Z,5.80
2023-04-15T17:20:27.014Z,5.10
2023-04-15T17:22:53.514Z,6.70
2023-04-15T17:25:19.990Z,7.20
2023-04-15T17:27:46.459Z,7.60
2023-04-15T17:30:12.963Z,7.50
2023-04-15T17:32:39.827Z,6.50
2023-04-15T17:35:07.169Z,7.20
2023-04-15T17:37:34.513Z,13.10
2023-04-15T17:40:01.040Z,9.70
2023-04-15T17:42:27.515Z,10.00
2023-04-15T17:44:54.016Z,9.20
2023-04-15T17:47:20.653Z,9.10
2023-04-15T17:49:47.215Z,8.70
2023-04-15T17:52:14.508Z,8.00
2023-04-15T17:54:40.985Z,9.90
2023-04-15T17:57:07.496Z,10.00
2023-04-15T17:59:33.996Z,11.10
2023-04-15T18:02:00.577Z,8.70
2023-04-15T18:04:27.380Z,10.00
2023-04-15T18:06:54.029Z,10.80
2023-04-15T18:09:20.603Z,19.60
2023-04-15T18:11:47.159Z,13.80
2023-04-15T18:14:20.182Z,22.00
2023-04-15T18:16:53.414Z,20.30
2023-04-15T18:19:19.862Z,24.90
2023-04-15T18:21:46.305Z,22.70
2023-04-15T18:24:12.814Z,20.70
2023-04-15T18:26:39.304Z,13.10
2023-04-15T18:29:05.776Z,10.40
2023-04-15T18:31:32.505Z,12.10
2023-04-15T18:33:59.151Z,10.50
2023-04-15T18:36:25.725Z,8.60
2023-04-15T18:38:52.220Z,9.00
2023-04-15T18:41:18.696Z,8.70
2023-04-15T18:43:45.198Z,7.50
2023-04-15T18:46:11.838Z,10.80
2023-04-15T18:48:38.393Z,11.10
2023-04-15T18:51:04.899Z,8.90
2023-04-15T18:53:31.421Z,10.20
2023-04-15T18:55:57.939Z,8.80
2023-04-15T18:58:24.410Z,10.90
2023-04-15T19:00:51.014Z,10.30
2023-04-15T19:03:17.601Z,10.10
2023-04-15T19:05:44.206Z,10.80
2023-04-15T19:08:11.009Z,12.80
2023-04-15T19:10:38.425Z,11.50
2023-04-15T19:13:04.910Z,12.10
2023-04-15T19:15:31.499Z,14.10
2023-04-15T19:17:58.025Z,13.00
2023-04-15T19:20:24.569Z,12.30
2023-04-15T19:22:51.140Z,11.20
2023-04-15T19:25:17.680Z,13.30
2023-04-15T19:27:44.152Z,13.90
2023-04-15T19:30:10.731Z,12.10
2023-04-15T19:32:37.355Z,12.30
2023-04-15T19:35:04.073Z,13.20
2023-04-15T19:37:30.815Z,15.00
2023-04-15T19:39:57.384Z,17.20
2023-04-15T19:42:23.929Z,13.40
2023-04-15T19:44:50.400Z,15.20
2023-04-15T19:47:17.039Z,13.70
2023-04-15T19:49:43.616Z,15.20
2023-04-15T19:52:10.084Z,15.10
2023-04-15T19:54:36.602Z,17.10
2023-04-15T19:57:03.602Z,15.70
2023-04-15T19:59:30.179Z,13.90
2023-04-15T20:01:56.989Z,14.80
2023-04-15T20:04:23.611Z,14.80
2023-04-15T20:06:50.196Z,15.60
2023-04-15T20:09:16.830Z,14.00
2023-04-15T20:12:48.080Z,20.40
2023-04-15T20:14:29.763Z,17.50
2023-04-15T20:16:56.298Z,15.80
2023-04-15T20:19:22.794Z,15.60
2023-04-15T20:21:51.960Z,15.90
2023-04-15T20:24:19.097Z,16.00
2023-04-15T20:26:45.568Z,19.60
2023-04-15T20:29:12.072Z,16.40
2023-04-15T20:31:38.592Z,14.20
2023-04-15T20:34:05.158Z,15.50
2023-04-15T20:36:31.718Z,16.40
2023-04-15T20:38:58.171Z,15.50
2023-04-15T20:41:24.645Z,16.40
2023-04-15T20:43:51.143Z,14.40
2023-04-15T20:46:21.478Z,14.80
2023-04-15T20:48:48.591Z,15.20
2023-04-15T20:51:15.116Z,16.90
2023-04-15T20:53:41.632Z,17.60
2023-04-15T20:56:08.213Z,16.50
2023-04-15T20:58:34.678Z,16.10
2023-04-15T21:01:01.206Z,17.10
2023-04-15T21:03:27.988Z,15.80
2023-04-15T21:05:54.524Z,15.20
2023-04-15T21:08:21.068Z,16.00
2023-04-15T21:10:47.546Z,15.90
2023-04-15T21:13:14.076Z,16.20
2023-04-15T21:15:40.588Z,14.10
2023-04-15T21:18:07.089Z,13.80
2023-04-15T21:20:33.559Z,13.30
2023-04-15T21:23:00.023Z,13.20
2023-04-15T21:25:26.474Z,12.90
2023-04-15T21:27:52.960Z,12.50
2023-04-15T21:30:19.482Z,12.30
2023-04-15T21:32:45.938Z,13.00
2023-04-15T21:35:12.532Z,14.10
2023-04-15T21:37:39.010Z,14.30
2023-04-15T21:40:06.150Z,14.50
2023-04-15T21:42:32.609Z,15.20
2023-04-15T21:44:59.121Z,13.50
2023-04-15T21:47:25.706Z,14.20
2023-04-15T21:49:52.255Z,15.10
2023-04-15T21:52:18.809Z,12.60
2023-04-15T21:54:45.277Z,13.50
2023-04-15T21:57:11.782Z,13.20
2023-04-15T21:59:38.232Z,14.10
2023-04-15T22:02:04.843Z,14.70
2023-04-15T22:04:31.468Z,14.80
2023-04-15T22:06:57.942Z,14.00
2023-04-15T22:09:24.438Z,12.80
2023-04-15T22:11:50.869Z,16.10
2023-04-15T22:14:17.313Z,14.00
2023-04-15T22:16:43.836Z,14.20
2023-04-15T22:19:10.397Z,15.20
2023-04-15T22:21:36.856Z,14.70
2023-04-15T22:24:38.309Z,15.30
2023-04-15T22:26:50.060Z,15.50
2023-04-15T22:29:16.509Z,18.00
2023-04-15T22:31:43.007Z,15.60
2023-04-15T22:34:09.466Z,15.60
2023-04-15T22:36:35.914Z,16.10
2023-04-15T22:39:02.396Z,17.10
2023-04-15T22:41:28.930Z,15.70
2023-04-15T22:43:55.414Z,15.70
2023-04-15T22:46:21.968Z,17.20
2023-04-15T22:48:48.494Z,16.40
2023-04-15T22:51:21.140Z,16.80
2023-04-15T22:53:47.646Z,16.10
2023-04-15T22:56:14.111Z,15.90
2023-04-15T22:58:40.685Z,15.00
2023-04-15T23:01:08.025Z,17.60
2023-04-15T23:03:40.192Z,15.60
2023-04-15T23:06:20.960Z,15.40
2023-04-15T23:08:47.441Z,14.40
2023-04-15T23:11:13.955Z,17.00
2023-04-15T23:13:40.434Z,16.80
2023-04-15T23:16:07.490Z,16.10
2023-04-15T23:18:34.230Z,15.00
2023-04-15T23:21:00.741Z,16.30
2023-04-15T23:23:27.236Z,12.80
2023-04-15T23:25:53.692Z,14.00
2023-04-15T23:28:20.163Z,15.80
2023-04-15T23:30:46.630Z,17.40
2023-04-15T23:33:13.167Z,15.50
2023-04-15T23:35:39.651Z,20.10
2023-04-15T23:38:06.113Z,19.00
2023-04-15T23:40:32.615Z,17.50
2023-04-15T23:42:59.089Z,17.20
2023-04-15T23:45:25.623Z,17.20
2023-04-15T23:47:52.184Z,19.20
2023-04-15T23:50:18.810Z,15.80
2023-04-15T23:52:45.266Z,17.60
2023-04-15T23:55:11.797Z,16.50
2023-04-15T23:57:38.332Z,16.90
